sensor_id;sensor_type;location;lat;lon;timestamp;P1;durP1;ratioP1;P2;durP2;ratioP2
6374;SDS011;35400;45.472;-122.822;2023-01-28T00:01:32;0.40;;;0.30;;
6374;SDS011;35400;45.472;-122.822;2023-01-28T00:03:59;0.47;;;0.40;;
6374;SDS011;35400;45.472;-122.822;2023-01-28T00:06:27;0.83;;;0.40;;
6374;SDS011;35400;45.472;-122.822;2023-01-28T00:08:53;0.40;;;0.40;;
6374;SDS011;35400;45.472;-122.822;2023-01-28T00:11:20;0.70;;;0.70;;
6374;SDS011;35400;45.472;-122.822;2023-01-28T00:13:51;0.87;;;0.80;;
6374;SDS011;35400;45.472;-122.822;2023-01-28T00:16:19;0.60;;;0.60;;
6374;SDS011;35400;45.472;-122.822;2023-01-28T00:18:51;0.90;;;0.80;;
6374;SDS011;35400;45.472;-122.822;2023-01-28T00:21:18;1.00;;;1.00;;
6374;SDS011;35400;45.472;-122.822;2023-01-28T00:23:52;1.10;;;1.00;;
6374;SDS011;35400;45.472;-122.822;2023-01-28T00:26:20;0.90;;;0.90;;
6374;SDS011;35400;45.472;-122.822;2023-01-28T00:28:49;0.90;;;0.80;;
6374;SDS011;35400;45.472;-122.822;2023-01-28T00:31:22;0.83;;;0.83;;
6374;SDS011;35400;45.472;-122.822;2023-01-28T00:33:52;1.17;;;0.93;;
6374;SDS011;35400;45.472;-122.822;2023-01-28T00:36:21;0.93;;;0.90;;
6374;SDS011;35400;45.472;-122.822;2023-01-28T00:38:53;1.03;;;0.93;;
6374;SDS011;35400;45.472;-122.822;2023-01-28T00:41:25;1.00;;;1.00;;
6374;SDS011;35400;45.472;-122.822;2023-01-28T00:43:56;1.33;;;1.23;;
6374;SDS011;35400;45.472;-122.822;2023-01-28T00:46:23;1.93;;;1.37;;
6374;SDS011;35400;45.472;-122.822;2023-01-28T00:48:51;1.60;;;1.50;;
6374;SDS011;35400;45.472;-122.822;2023-01-28T00:51:19;1.73;;;1.33;;
6374;SDS011;35400;45.472;-122.822;2023-01-28T00:53:47;1.10;;;1.00;;
6374;SDS011;35400;45.472;-122.822;2023-01-28T00:56:15;1.10;;;1.03;;
6374;SDS011;35400;45.472;-122.822;2023-01-28T00:58:44;0.80;;;0.80;;
6374;SDS011;35400;45.472;-122.822;2023-01-28T01:01:12;1.00;;;0.93;;
6374;SDS011;35400;45.472;-122.822;2023-01-28T01:03:50;0.90;;;0.80;;
6374;SDS011;35400;45.472;-122.822;2023-01-28T01:06:38;1.90;;;1.70;;
6374;SDS011;35400;45.472;-122.822;2023-01-28T01:09:07;1.67;;;1.30;;
6374;SDS011;35400;45.472;-122.822;2023-01-28T01:11:36;1.60;;;1.30;;
6374;SDS011;35400;45.472;-122.822;2023-01-28T01:14:03;1.10;;;1.00;;
6374;SDS011;35400;45.472;-122.822;2023-01-28T01:16:32;1.00;;;1.00;;
6374;SDS011;35400;45.472;-122.822;2023-01-28T01:19:00;1.30;;;1.00;;
6374;SDS011;35400;45.472;-122.822;2023-01-28T01:21:28;1.77;;;1.10;;
6374;SDS011;35400;45.472;-122.822;2023-01-28T01:23:55;1.13;;;1.03;;
6374;SDS011;35400;45.472;-122.822;2023-01-28T01:26:23;1.30;;;1.10;;
6374;SDS011;35400;45.472;-122.822;2023-01-28T01:28:52;1.63;;;1.03;;
6374;SDS011;35400;45.472;-122.822;2023-01-28T01:31:19;1.00;;;1.00;;
6374;SDS011;35400;45.472;-122.822;2023-01-28T01:33:48;1.23;;;1.13;;
6374;SDS011;35400;45.472;-122.822;2023-01-28T01:36:16;1.73;;;1.30;;
6374;SDS011;35400;45.472;-122.822;2023-01-28T01:38:45;2.33;;;1.60;;
6374;SDS011;35400;45.472;-122.822;2023-01-28T01:41:22;2.03;;;1.70;;
6374;SDS011;35400;45.472;-122.822;2023-01-28T01:49:21;2.00;;;1.80;;
6374;SDS011;35400;45.472;-122.822;2023-01-28T01:51:50;2.23;;;1.80;;
6374;SDS011;35400;45.472;-122.822;2023-01-28T01:54:22;2.07;;;1.87;;
6374;SDS011;35400;45.472;-122.822;2023-01-28T01:56:55;2.13;;;1.90;;
6374;SDS011;35400;45.472;-122.822;2023-01-28T01:59:29;2.73;;;1.60;;
6374;SDS011;35400;45.472;-122.822;2023-01-28T02:02:01;2.00;;;1.83;;
6374;SDS011;35400;45.472;-122.822;2023-01-28T02:04:40;2.10;;;1.90;;
6374;SDS011;35400;45.472;-122.822;2023-01-28T02:07:09;2.90;;;1.97;;
6374;SDS011;35400;45.472;-122.822;2023-01-28T02:09:39;2.20;;;2.00;;
6374;SDS011;35400;45.472;-122.822;2023-01-28T02:14:44;3.10;;;1.93;;
6374;SDS011;35400;45.472;-122.822;2023-01-28T02:17:21;2.23;;;1.90;;
6374;SDS011;35400;45.472;-122.822;2023-01-28T02:28:22;2.40;;;1.80;;
6374;SDS011;35400;45.472;-122.822;2023-01-28T02:39:15;1.90;;;1.80;;
6374;SDS011;35400;45.472;-122.822;2023-01-28T02:42:29;2.47;;;1.80;;
6374;SDS011;35400;45.472;-122.822;2023-01-28T02:44:43;2.10;;;1.53;;
6374;SDS011;35400;45.472;-122.822;2023-01-28T02:47:10;0.70;;;0.70;;
6374;SDS011;35400;45.472;-122.822;2023-01-28T02:49:57;0.63;;;0.60;;
6374;SDS011;35400;45.472;-122.822;2023-01-28T02:55:37;1.13;;;0.60;;
6374;SDS011;35400;45.472;-122.822;2023-01-28T02:58:19;0.73;;;0.57;;
6374;SDS011;35400;45.472;-122.822;2023-01-28T03:01:03;0.60;;;0.60;;
6374;SDS011;35400;45.472;-122.822;2023-01-28T03:03:54;1.90;;;0.90;;
6374;SDS011;35400;45.472;-122.822;2023-01-28T03:06:40;1.83;;;1.07;;
6374;SDS011;35400;45.472;-122.822;2023-01-28T03:09:13;2.10;;;1.10;;
6374;SDS011;35400;45.472;-122.822;2023-01-28T03:11:57;1.60;;;0.90;;
6374;SDS011;35400;45.472;-122.822;2023-01-28T03:15:02;1.57;;;1.20;;
6374;SDS011;35400;45.472;-122.822;2023-01-28T03:18:19;2.23;;;1.77;;
6374;SDS011;35400;45.472;-122.822;2023-01-28T03:30:13;3.97;;;2.10;;
6374;SDS011;35400;45.472;-122.822;2023-01-28T03:33:28;2.50;;;1.70;;
6374;SDS011;35400;45.472;-122.822;2023-01-28T03:36:16;2.50;;;1.70;;
6374;SDS011;35400;45.472;-122.822;2023-01-28T03:39:02;3.03;;;2.37;;
6374;SDS011;35400;45.472;-122.822;2023-01-28T03:41:29;2.87;;;2.23;;
6374;SDS011;35400;45.472;-122.822;2023-01-28T03:43:57;2.33;;;1.90;;
6374;SDS011;35400;45.472;-122.822;2023-01-28T03:46:45;2.27;;;2.00;;
6374;SDS011;35400;45.472;-122.822;2023-01-28T03:49:14;4.10;;;2.03;;
6374;SDS011;35400;45.472;-122.822;2023-01-28T03:51:41;4.93;;;2.63;;
6374;SDS011;35400;45.472;-122.822;2023-01-28T03:54:11;3.67;;;2.10;;
6374;SDS011;35400;45.472;-122.822;2023-01-28T03:56:38;3.70;;;2.23;;
6374;SDS011;35400;45.472;-122.822;2023-01-28T03:59:06;2.77;;;2.07;;
6374;SDS011;35400;45.472;-122.822;2023-01-28T04:01:33;3.53;;;1.73;;
6374;SDS011;35400;45.472;-122.822;2023-01-28T04:04:00;1.67;;;1.43;;
6374;SDS011;35400;45.472;-122.822;2023-01-28T04:06:27;3.93;;;1.80;;
6374;SDS011;35400;45.472;-122.822;2023-01-28T04:09:33;2.43;;;1.83;;
6374;SDS011;35400;45.472;-122.822;2023-01-28T04:12:22;3.57;;;2.47;;
6374;SDS011;35400;45.472;-122.822;2023-01-28T04:14:50;2.37;;;1.90;;
6374;SDS011;35400;45.472;-122.822;2023-01-28T04:17:25;3.63;;;2.90;;
6374;SDS011;35400;45.472;-122.822;2023-01-28T04:19:52;5.10;;;3.27;;
6374;SDS011;35400;45.472;-122.822;2023-01-28T04:22:20;3.97;;;2.43;;
6374;SDS011;35400;45.472;-122.822;2023-01-28T04:24:49;3.67;;;2.50;;
6374;SDS011;35400;45.472;-122.822;2023-01-28T04:27:16;2.73;;;1.67;;
6374;SDS011;35400;45.472;-122.822;2023-01-28T04:29:43;2.17;;;1.57;;
6374;SDS011;35400;45.472;-122.822;2023-01-28T04:32:43;2.67;;;1.27;;
6374;SDS011;35400;45.472;-122.822;2023-01-28T04:35:24;2.03;;;1.73;;
6374;SDS011;35400;45.472;-122.822;2023-01-28T04:38:00;2.63;;;1.90;;
6374;SDS011;35400;45.472;-122.822;2023-01-28T04:40:36;3.50;;;2.10;;
6374;SDS011;35400;45.472;-122.822;2023-01-28T04:43:08;2.37;;;1.90;;
6374;SDS011;35400;45.472;-122.822;2023-01-28T04:45:46;2.60;;;1.60;;
6374;SDS011;35400;45.472;-122.822;2023-01-28T04:48:31;2.43;;;1.40;;
6374;SDS011;35400;45.472;-122.822;2023-01-28T04:51:17;2.63;;;1.20;;
6374;SDS011;35400;45.472;-122.822;2023-01-28T04:53:54;4.07;;;1.20;;
6374;SDS011;35400;45.472;-122.822;2023-01-28T04:56:27;1.43;;;1.33;;
6374;SDS011;35400;45.472;-122.822;2023-01-28T04:58:54;2.47;;;1.47;;
6374;SDS011;35400;45.472;-122.822;2023-01-28T05:01:22;1.73;;;1.00;;
6374;SDS011;35400;45.472;-122.822;2023-01-28T05:03:50;1.80;;;1.50;;
6374;SDS011;35400;45.472;-122.822;2023-01-28T05:06:22;1.50;;;1.30;;
6374;SDS011;35400;45.472;-122.822;2023-01-28T05:08:52;2.93;;;1.90;;
6374;SDS011;35400;45.472;-122.822;2023-01-28T05:11:19;2.80;;;1.70;;
6374;SDS011;35400;45.472;-122.822;2023-01-28T05:13:51;2.33;;;1.57;;
6374;SDS011;35400;45.472;-122.822;2023-01-28T05:16:19;1.97;;;1.67;;
6374;SDS011;35400;45.472;-122.822;2023-01-28T05:18:46;2.57;;;1.77;;
6374;SDS011;35400;45.472;-122.822;2023-01-28T05:21:18;2.33;;;1.77;;
6374;SDS011;35400;45.472;-122.822;2023-01-28T05:23:50;2.03;;;1.50;;
6374;SDS011;35400;45.472;-122.822;2023-01-28T05:26:17;1.83;;;1.53;;
6374;SDS011;35400;45.472;-122.822;2023-01-28T05:28:44;2.60;;;1.83;;
6374;SDS011;35400;45.472;-122.822;2023-01-28T05:31:11;3.10;;;1.80;;
6374;SDS011;35400;45.472;-122.822;2023-01-28T05:33:38;1.63;;;1.30;;
6374;SDS011;35400;45.472;-122.822;2023-01-28T05:36:07;1.40;;;1.30;;
6374;SDS011;35400;45.472;-122.822;2023-01-28T05:38:34;3.20;;;1.53;;
6374;SDS011;35400;45.472;-122.822;2023-01-28T05:41:01;3.00;;;1.40;;
6374;SDS011;35400;45.472;-122.822;2023-01-28T05:43:28;1.30;;;1.20;;
6374;SDS011;35400;45.472;-122.822;2023-01-28T05:46:14;2.30;;;1.30;;
6374;SDS011;35400;45.472;-122.822;2023-01-28T05:49:10;1.90;;;1.33;;
6374;SDS011;35400;45.472;-122.822;2023-01-28T05:52:07;1.80;;;1.30;;
6374;SDS011;35400;45.472;-122.822;2023-01-28T05:54:35;1.47;;;1.37;;
6374;SDS011;35400;45.472;-122.822;2023-01-28T05:57:02;2.67;;;1.50;;
6374;SDS011;35400;45.472;-122.822;2023-01-28T05:59:30;2.20;;;1.60;;
6374;SDS011;35400;45.472;-122.822;2023-01-28T06:01:57;2.63;;;1.87;;
6374;SDS011;35400;45.472;-122.822;2023-01-28T06:04:24;2.30;;;1.50;;
6374;SDS011;35400;45.472;-122.822;2023-01-28T06:06:51;2.10;;;1.67;;
6374;SDS011;35400;45.472;-122.822;2023-01-28T06:09:19;1.93;;;1.70;;
6374;SDS011;35400;45.472;-122.822;2023-01-28T06:11:46;4.17;;;1.83;;
6374;SDS011;35400;45.472;-122.822;2023-01-28T06:14:14;2.93;;;2.50;;
6374;SDS011;35400;45.472;-122.822;2023-01-28T06:17:05;3.53;;;2.33;;
6374;SDS011;35400;45.472;-122.822;2023-01-28T06:19:54;3.20;;;2.20;;
6374;SDS011;35400;45.472;-122.822;2023-01-28T06:22:21;4.73;;;2.53;;
6374;SDS011;35400;45.472;-122.822;2023-01-28T06:24:48;4.70;;;2.80;;
6374;SDS011;35400;45.472;-122.822;2023-01-28T06:27:15;3.90;;;3.10;;
6374;SDS011;35400;45.472;-122.822;2023-01-28T06:29:42;4.13;;;2.80;;
6374;SDS011;35400;45.472;-122.822;2023-01-28T06:32:09;2.30;;;2.00;;
6374;SDS011;35400;45.472;-122.822;2023-01-28T06:34:35;2.83;;;1.83;;
6374;SDS011;35400;45.472;-122.822;2023-01-28T06:37:02;2.70;;;2.27;;
6374;SDS011;35400;45.472;-122.822;2023-01-28T06:39:29;3.40;;;2.13;;
6374;SDS011;35400;45.472;-122.822;2023-01-28T06:41:57;2.70;;;2.30;;
6374;SDS011;35400;45.472;-122.822;2023-01-28T06:44:25;4.77;;;2.60;;
6374;SDS011;35400;45.472;-122.822;2023-01-28T06:46:52;5.87;;;3.07;;
6374;SDS011;35400;45.472;-122.822;2023-01-28T06:49:18;3.93;;;3.27;;
6374;SDS011;35400;45.472;-122.822;2023-01-28T06:51:46;4.50;;;3.27;;
6374;SDS011;35400;45.472;-122.822;2023-01-28T06:54:13;4.37;;;2.87;;
6374;SDS011;35400;45.472;-122.822;2023-01-28T06:56:40;3.90;;;3.20;;
6374;SDS011;35400;45.472;-122.822;2023-01-28T06:59:07;4.47;;;3.00;;
6374;SDS011;35400;45.472;-122.822;2023-01-28T07:01:34;4.47;;;3.27;;
6374;SDS011;35400;45.472;-122.822;2023-01-28T07:04:01;5.30;;;3.23;;
6374;SDS011;35400;45.472;-122.822;2023-01-28T07:06:28;4.40;;;3.00;;
6374;SDS011;35400;45.472;-122.822;2023-01-28T07:08:55;4.47;;;2.93;;
6374;SDS011;35400;45.472;-122.822;2023-01-28T07:11:22;5.37;;;3.17;;
6374;SDS011;35400;45.472;-122.822;2023-01-28T07:13:48;5.00;;;3.20;;
6374;SDS011;35400;45.472;-122.822;2023-01-28T07:16:15;6.97;;;3.50;;
6374;SDS011;35400;45.472;-122.822;2023-01-28T07:18:42;5.67;;;3.63;;
6374;SDS011;35400;45.472;-122.822;2023-01-28T07:21:09;6.43;;;4.13;;
6374;SDS011;35400;45.472;-122.822;2023-01-28T07:23:36;7.07;;;4.53;;
6374;SDS011;35400;45.472;-122.822;2023-01-28T07:26:04;8.87;;;4.63;;
6374;SDS011;35400;45.472;-122.822;2023-01-28T07:28:31;6.03;;;3.83;;
6374;SDS011;35400;45.472;-122.822;2023-01-28T07:30:58;4.67;;;3.63;;
6374;SDS011;35400;45.472;-122.822;2023-01-28T07:33:25;6.13;;;4.00;;
6374;SDS011;35400;45.472;-122.822;2023-01-28T07:35:52;7.23;;;4.70;;
6374;SDS011;35400;45.472;-122.822;2023-01-28T07:38:18;5.43;;;4.20;;
6374;SDS011;35400;45.472;-122.822;2023-01-28T07:40:45;5.90;;;3.83;;
6374;SDS011;35400;45.472;-122.822;2023-01-28T07:43:12;5.80;;;3.97;;
6374;SDS011;35400;45.472;-122.822;2023-01-28T07:45:39;6.50;;;3.80;;
6374;SDS011;35400;45.472;-122.822;2023-01-28T07:48:06;6.27;;;3.70;;
6374;SDS011;35400;45.472;-122.822;2023-01-28T07:50:36;6.43;;;3.57;;
6374;SDS011;35400;45.472;-122.822;2023-01-28T07:53:04;4.77;;;3.93;;
6374;SDS011;35400;45.472;-122.822;2023-01-28T07:55:32;6.40;;;3.93;;
6374;SDS011;35400;45.472;-122.822;2023-01-28T07:58:03;9.50;;;3.93;;
6374;SDS011;35400;45.472;-122.822;2023-01-28T08:00:32;7.97;;;4.07;;
6374;SDS011;35400;45.472;-122.822;2023-01-28T08:03:03;7.27;;;3.70;;
6374;SDS011;35400;45.472;-122.822;2023-01-28T08:05:48;4.53;;;3.27;;
6374;SDS011;35400;45.472;-122.822;2023-01-28T08:08:17;3.53;;;2.60;;
6374;SDS011;35400;45.472;-122.822;2023-01-28T08:10:45;4.67;;;3.07;;
6374;SDS011;35400;45.472;-122.822;2023-01-28T08:13:12;6.07;;;2.80;;
6374;SDS011;35400;45.472;-122.822;2023-01-28T08:15:40;7.13;;;3.20;;
6374;SDS011;35400;45.472;-122.822;2023-01-28T08:18:07;4.03;;;2.90;;
6374;SDS011;35400;45.472;-122.822;2023-01-28T08:20:37;4.47;;;2.80;;
6374;SDS011;35400;45.472;-122.822;2023-01-28T08:25:33;3.97;;;3.10;;
6374;SDS011;35400;45.472;-122.822;2023-01-28T08:28:01;7.40;;;3.30;;
6374;SDS011;35400;45.472;-122.822;2023-01-28T08:30:29;4.47;;;2.87;;
6374;SDS011;35400;45.472;-122.822;2023-01-28T08:32:56;5.03;;;3.27;;
6374;SDS011;35400;45.472;-122.822;2023-01-28T08:35:25;4.97;;;3.30;;
6374;SDS011;35400;45.472;-122.822;2023-01-28T08:37:52;3.90;;;2.93;;
6374;SDS011;35400;45.472;-122.822;2023-01-28T08:40:19;3.93;;;3.27;;
6374;SDS011;35400;45.472;-122.822;2023-01-28T08:42:47;5.17;;;3.03;;
6374;SDS011;35400;45.472;-122.822;2023-01-28T08:45:15;5.57;;;3.03;;
6374;SDS011;35400;45.472;-122.822;2023-01-28T08:47:52;4.80;;;2.60;;
6374;SDS011;35400;45.472;-122.822;2023-01-28T08:50:21;4.73;;;2.87;;
6374;SDS011;35400;45.472;-122.822;2023-01-28T08:52:53;4.27;;;2.40;;
6374;SDS011;35400;45.472;-122.822;2023-01-28T08:55:24;4.30;;;2.80;;
6374;SDS011;35400;45.472;-122.822;2023-01-28T08:57:52;3.87;;;2.97;;
6374;SDS011;35400;45.472;-122.822;2023-01-28T09:00:20;5.20;;;3.00;;
6374;SDS011;35400;45.472;-122.822;2023-01-28T09:02:50;4.10;;;3.23;;
6374;SDS011;35400;45.472;-122.822;2023-01-28T09:05:19;3.00;;;2.53;;
6374;SDS011;35400;45.472;-122.822;2023-01-28T09:07:46;5.30;;;2.70;;
6374;SDS011;35400;45.472;-122.822;2023-01-28T09:10:14;2.50;;;2.00;;
6374;SDS011;35400;45.472;-122.822;2023-01-28T09:12:41;3.43;;;2.33;;
6374;SDS011;35400;45.472;-122.822;2023-01-28T09:15:09;3.70;;;2.20;;
6374;SDS011;35400;45.472;-122.822;2023-01-28T09:17:36;2.83;;;2.10;;
6374;SDS011;35400;45.472;-122.822;2023-01-28T09:20:04;3.20;;;2.50;;
6374;SDS011;35400;45.472;-122.822;2023-01-28T09:22:32;3.50;;;2.47;;
6374;SDS011;35400;45.472;-122.822;2023-01-28T09:24:59;3.13;;;2.23;;
6374;SDS011;35400;45.472;-122.822;2023-01-28T09:27:26;3.33;;;2.20;;
6374;SDS011;35400;45.472;-122.822;2023-01-28T09:29:53;4.83;;;2.50;;
6374;SDS011;35400;45.472;-122.822;2023-01-28T09:32:20;4.63;;;2.63;;
6374;SDS011;35400;45.472;-122.822;2023-01-28T09:34:49;3.77;;;2.20;;
6374;SDS011;35400;45.472;-122.822;2023-01-28T09:37:16;4.17;;;2.17;;
6374;SDS011;35400;45.472;-122.822;2023-01-28T09:39:43;3.93;;;2.20;;
6374;SDS011;35400;45.472;-122.822;2023-01-28T09:44:57;4.73;;;1.90;;
6374;SDS011;35400;45.472;-122.822;2023-01-28T09:50:36;3.93;;;1.97;;
6374;SDS011;35400;45.472;-122.822;2023-01-28T09:55:46;2.30;;;1.47;;
6374;SDS011;35400;45.472;-122.822;2023-01-28T09:58:16;4.50;;;2.00;;
6374;SDS011;35400;45.472;-122.822;2023-01-28T10:17:30;3.33;;;1.77;;
6374;SDS011;35400;45.472;-122.822;2023-01-28T10:22:42;3.33;;;2.03;;
6374;SDS011;35400;45.472;-122.822;2023-01-28T10:25:16;1.93;;;1.63;;
6374;SDS011;35400;45.472;-122.822;2023-01-28T10:27:48;2.10;;;1.50;;
6374;SDS011;35400;45.472;-122.822;2023-01-28T10:32:52;3.73;;;1.93;;
6374;SDS011;35400;45.472;-122.822;2023-01-28T10:35:39;3.23;;;2.40;;
6374;SDS011;35400;45.472;-122.822;2023-01-28T10:38:09;5.23;;;2.30;;
6374;SDS011;35400;45.472;-122.822;2023-01-28T10:40:49;6.00;;;2.93;;
6374;SDS011;35400;45.472;-122.822;2023-01-28T10:43:17;4.83;;;2.70;;
6374;SDS011;35400;45.472;-122.822;2023-01-28T10:51:30;4.03;;;2.60;;
6374;SDS011;35400;45.472;-122.822;2023-01-28T10:53:58;5.13;;;2.60;;
6374;SDS011;35400;45.472;-122.822;2023-01-28T10:56:31;2.93;;;2.50;;
6374;SDS011;35400;45.472;-122.822;2023-01-28T10:59:05;6.63;;;3.03;;
6374;SDS011;35400;45.472;-122.822;2023-01-28T11:01:44;3.77;;;2.73;;
6374;SDS011;35400;45.472;-122.822;2023-01-28T11:04:21;5.43;;;3.33;;
6374;SDS011;35400;45.472;-122.822;2023-01-28T11:06:54;3.60;;;2.60;;
6374;SDS011;35400;45.472;-122.822;2023-01-28T11:09:25;4.43;;;3.07;;
6374;SDS011;35400;45.472;-122.822;2023-01-28T11:11:57;4.40;;;3.40;;
6374;SDS011;35400;45.472;-122.822;2023-01-28T11:14:35;3.40;;;2.90;;
6374;SDS011;35400;45.472;-122.822;2023-01-28T11:17:01;4.83;;;3.47;;
6374;SDS011;35400;45.472;-122.822;2023-01-28T11:19:34;4.27;;;2.80;;
6374;SDS011;35400;45.472;-122.822;2023-01-28T11:22:03;3.73;;;3.20;;
6374;SDS011;35400;45.472;-122.822;2023-01-28T11:24:31;4.50;;;3.40;;
6374;SDS011;35400;45.472;-122.822;2023-01-28T11:27:00;7.27;;;3.33;;
6374;SDS011;35400;45.472;-122.822;2023-01-28T11:29:42;4.20;;;3.13;;
6374;SDS011;35400;45.472;-122.822;2023-01-28T11:32:16;4.73;;;3.37;;
6374;SDS011;35400;45.472;-122.822;2023-01-28T11:34:48;3.80;;;2.97;;
6374;SDS011;35400;45.472;-122.822;2023-01-28T11:37:16;5.67;;;3.13;;
6374;SDS011;35400;45.472;-122.822;2023-01-28T11:39:45;5.53;;;3.10;;
6374;SDS011;35400;45.472;-122.822;2023-01-28T11:42:19;4.80;;;3.23;;
6374;SDS011;35400;45.472;-122.822;2023-01-28T11:44:47;3.70;;;3.10;;
6374;SDS011;35400;45.472;-122.822;2023-01-28T11:47:23;5.13;;;3.10;;
6374;SDS011;35400;45.472;-122.822;2023-01-28T11:50:17;3.67;;;2.70;;
6374;SDS011;35400;45.472;-122.822;2023-01-28T11:55:57;3.37;;;2.60;;
6374;SDS011;35400;45.472;-122.822;2023-01-28T12:04:11;5.80;;;2.90;;
6374;SDS011;35400;45.472;-122.822;2023-01-28T12:20:14;4.10;;;2.57;;
6374;SDS011;35400;45.472;-122.822;2023-01-28T12:22:56;3.30;;;2.90;;
6374;SDS011;35400;45.472;-122.822;2023-01-28T12:37:27;3.00;;;2.43;;
6374;SDS011;35400;45.472;-122.822;2023-01-28T12:43:03;3.63;;;2.73;;
6374;SDS011;35400;45.472;-122.822;2023-01-28T12:45:43;4.53;;;4.13;;
6374;SDS011;35400;45.472;-122.822;2023-01-28T12:48:33;4.53;;;4.07;;
6374;SDS011;35400;45.472;-122.822;2023-01-28T12:51:08;8.30;;;5.50;;
6374;SDS011;35400;45.472;-122.822;2023-01-28T12:56:35;10.43;;;5.70;;
6374;SDS011;35400;45.472;-122.822;2023-01-28T12:59:26;9.67;;;5.57;;
6374;SDS011;35400;45.472;-122.822;2023-01-28T13:02:05;10.03;;;6.20;;
6374;SDS011;35400;45.472;-122.822;2023-01-28T13:10:09;10.43;;;7.10;;
6374;SDS011;35400;45.472;-122.822;2023-01-28T13:12:50;10.30;;;7.10;;
6374;SDS011;35400;45.472;-122.822;2023-01-28T13:15:18;12.40;;;7.93;;
6374;SDS011;35400;45.472;-122.822;2023-01-28T13:17:56;10.97;;;6.70;;
6374;SDS011;35400;45.472;-122.822;2023-01-28T13:23:03;8.97;;;6.20;;
6374;SDS011;35400;45.472;-122.822;2023-01-28T13:25:48;8.30;;;6.10;;
6374;SDS011;35400;45.472;-122.822;2023-01-28T13:28:31;9.73;;;6.20;;
6374;SDS011;35400;45.472;-122.822;2023-01-28T13:33:29;10.40;;;6.63;;
6374;SDS011;35400;45.472;-122.822;2023-01-28T13:36:00;9.23;;;6.17;;
6374;SDS011;35400;45.472;-122.822;2023-01-28T13:38:43;13.23;;;7.07;;
6374;SDS011;35400;45.472;-122.822;2023-01-28T13:41:11;12.30;;;6.27;;
6374;SDS011;35400;45.472;-122.822;2023-01-28T13:43:39;10.50;;;6.87;;
6374;SDS011;35400;45.472;-122.822;2023-01-28T13:46:08;10.73;;;6.43;;
6374;SDS011;35400;45.472;-122.822;2023-01-28T13:51:19;15.03;;;7.53;;
6374;SDS011;35400;45.472;-122.822;2023-01-28T13:56:21;9.83;;;6.23;;
6374;SDS011;35400;45.472;-122.822;2023-01-28T14:12:44;20.70;;;10.23;;
6374;SDS011;35400;45.472;-122.822;2023-01-28T14:15:21;15.10;;;9.40;;
6374;SDS011;35400;45.472;-122.822;2023-01-28T14:18:13;15.10;;;9.27;;
6374;SDS011;35400;45.472;-122.822;2023-01-28T14:20:52;13.53;;;9.40;;
6374;SDS011;35400;45.472;-122.822;2023-01-28T14:23:21;11.73;;;7.93;;
6374;SDS011;35400;45.472;-122.822;2023-01-28T14:26:00;11.67;;;8.03;;
6374;SDS011;35400;45.472;-122.822;2023-01-28T14:31:35;13.90;;;7.50;;
6374;SDS011;35400;45.472;-122.822;2023-01-28T14:34:05;12.27;;;7.60;;
6374;SDS011;35400;45.472;-122.822;2023-01-28T14:36:39;13.23;;;7.47;;
6374;SDS011;35400;45.472;-122.822;2023-01-28T14:41:57;15.37;;;9.13;;
6374;SDS011;35400;45.472;-122.822;2023-01-28T14:44:35;15.53;;;8.90;;
6374;SDS011;35400;45.472;-122.822;2023-01-28T14:55:32;16.10;;;8.57;;
6374;SDS011;35400;45.472;-122.822;2023-01-28T14:58:16;15.23;;;8.70;;
6374;SDS011;35400;45.472;-122.822;2023-01-28T15:01:03;15.63;;;8.93;;
6374;SDS011;35400;45.472;-122.822;2023-01-28T15:03:30;14.70;;;9.30;;
6374;SDS011;35400;45.472;-122.822;2023-01-28T15:06:05;16.63;;;9.00;;
6374;SDS011;35400;45.472;-122.822;2023-01-28T15:08:43;16.20;;;8.50;;
6374;SDS011;35400;45.472;-122.822;2023-01-28T15:11:11;16.30;;;9.10;;
6374;SDS011;35400;45.472;-122.822;2023-01-28T15:13:42;14.03;;;8.50;;
6374;SDS011;35400;45.472;-122.822;2023-01-28T15:16:14;15.33;;;9.00;;
6374;SDS011;35400;45.472;-122.822;2023-01-28T15:18:50;13.37;;;8.70;;
6374;SDS011;35400;45.472;-122.822;2023-01-28T15:21:24;16.57;;;9.03;;
6374;SDS011;35400;45.472;-122.822;2023-01-28T15:23:54;16.03;;;9.27;;
6374;SDS011;35400;45.472;-122.822;2023-01-28T15:26:26;14.37;;;8.03;;
6374;SDS011;35400;45.472;-122.822;2023-01-28T15:28:55;15.20;;;8.90;;
6374;SDS011;35400;45.472;-122.822;2023-01-28T15:31:27;15.80;;;9.07;;
6374;SDS011;35400;45.472;-122.822;2023-01-28T15:34:02;13.33;;;8.53;;
6374;SDS011;35400;45.472;-122.822;2023-01-28T15:36:55;13.10;;;7.80;;
6374;SDS011;35400;45.472;-122.822;2023-01-28T15:39:23;12.10;;;7.20;;
6374;SDS011;35400;45.472;-122.822;2023-01-28T15:41:52;9.70;;;6.13;;
6374;SDS011;35400;45.472;-122.822;2023-01-28T15:44:28;7.40;;;4.97;;
6374;SDS011;35400;45.472;-122.822;2023-01-28T15:47:25;3.80;;;2.57;;
6374;SDS011;35400;45.472;-122.822;2023-01-28T15:49:54;2.00;;;1.80;;
6374;SDS011;35400;45.472;-122.822;2023-01-28T15:52:57;2.73;;;1.50;;
6374;SDS011;35400;45.472;-122.822;2023-01-28T15:55:26;2.10;;;1.50;;
6374;SDS011;35400;45.472;-122.822;2023-01-28T16:00:46;4.60;;;1.43;;
6374;SDS011;35400;45.472;-122.822;2023-01-28T16:03:17;1.70;;;1.57;;
6374;SDS011;35400;45.472;-122.822;2023-01-28T16:05:59;1.47;;;1.37;;
6374;SDS011;35400;45.472;-122.822;2023-01-28T16:11:26;1.03;;;1.00;;
6374;SDS011;35400;45.472;-122.822;2023-01-28T16:13:55;1.27;;;1.17;;
6374;SDS011;35400;45.472;-122.822;2023-01-28T16:16:27;1.90;;;1.47;;
6374;SDS011;35400;45.472;-122.822;2023-01-28T16:19:02;1.87;;;1.70;;
6374;SDS011;35400;45.472;-122.822;2023-01-28T16:21:35;2.10;;;1.80;;
6374;SDS011;35400;45.472;-122.822;2023-01-28T16:27:20;1.63;;;1.53;;
6374;SDS011;35400;45.472;-122.822;2023-01-28T16:29:49;1.40;;;1.30;;
6374;SDS011;35400;45.472;-122.822;2023-01-28T16:32:30;1.20;;;1.10;;
6374;SDS011;35400;45.472;-122.822;2023-01-28T16:35:01;2.17;;;1.00;;
6374;SDS011;35400;45.472;-122.822;2023-01-28T16:37:29;1.43;;;0.80;;
6374;SDS011;35400;45.472;-122.822;2023-01-28T16:39:56;1.00;;;0.90;;
6374;SDS011;35400;45.472;-122.822;2023-01-28T16:42:22;1.20;;;1.13;;
6374;SDS011;35400;45.472;-122.822;2023-01-28T16:44:50;1.17;;;0.90;;
6374;SDS011;35400;45.472;-122.822;2023-01-28T16:47:16;1.00;;;0.90;;
6374;SDS011;35400;45.472;-122.822;2023-01-28T16:49:43;0.90;;;0.90;;
6374;SDS011;35400;45.472;-122.822;2023-01-28T16:52:11;1.03;;;0.93;;
6374;SDS011;35400;45.472;-122.822;2023-01-28T16:54:39;0.90;;;0.90;;
6374;SDS011;35400;45.472;-122.822;2023-01-28T16:57:13;0.90;;;0.90;;
6374;SDS011;35400;45.472;-122.822;2023-01-28T16:59:43;1.63;;;1.20;;
6374;SDS011;35400;45.472;-122.822;2023-01-28T17:02:11;1.10;;;1.00;;
6374;SDS011;35400;45.472;-122.822;2023-01-28T17:04:40;0.73;;;0.73;;
6374;SDS011;35400;45.472;-122.822;2023-01-28T17:07:07;0.70;;;0.70;;
6374;SDS011;35400;45.472;-122.822;2023-01-28T17:09:34;1.33;;;0.70;;
6374;SDS011;35400;45.472;-122.822;2023-01-28T17:12:01;1.23;;;0.80;;
6374;SDS011;35400;45.472;-122.822;2023-01-28T17:14:28;1.00;;;0.93;;
6374;SDS011;35400;45.472;-122.822;2023-01-28T17:16:55;1.43;;;1.00;;
6374;SDS011;35400;45.472;-122.822;2023-01-28T17:19:22;0.70;;;0.70;;
6374;SDS011;35400;45.472;-122.822;2023-01-28T17:21:49;2.00;;;0.70;;
6374;SDS011;35400;45.472;-122.822;2023-01-28T17:24:16;0.70;;;0.70;;
6374;SDS011;35400;45.472;-122.822;2023-01-28T17:26:43;0.93;;;0.70;;
6374;SDS011;35400;45.472;-122.822;2023-01-28T17:29:10;0.83;;;0.83;;
6374;SDS011;35400;45.472;-122.822;2023-01-28T17:31:36;1.03;;;0.90;;
6374;SDS011;35400;45.472;-122.822;2023-01-28T17:34:03;0.90;;;0.90;;
6374;SDS011;35400;45.472;-122.822;2023-01-28T17:36:32;0.77;;;0.77;;
6374;SDS011;35400;45.472;-122.822;2023-01-28T17:38:59;0.70;;;0.60;;